sensor_id;sensor_type;location;lat;lon;timestamp;P1;durP1;ratioP1;P2;durP2;ratioP2
44126;SDS011;29786;50.798;7.302;2023-06-14T00:01:55;7.5;;;4.9;;
44126;SDS011;29786;50.798;7.302;2023-06-14T00:03:09;6.1;;;4.5;;
44126;SDS011;29786;50.798;7.302;2023-06-14T00:04:23;7.1;;;4.7;;
44126;SDS011;29786;50.798;7.302;2023-06-14T00:06:51;5.2;;;4.7;;
44126;SDS011;29786;50.798;7.302;2023-06-14T00:08:06;4.9;;;4.4;;
44126;SDS011;29786;50.798;7.302;2023-06-14T00:09:20;7;;;4.8;;
44126;SDS011;29786;50.798;7.302;2023-06-14T00:10:34;5.2;;;4.4;;
44126;SDS011;29786;50.798;7.302;2023-06-14T00:13:02;5.1;;;4.4;;
44126;SDS011;29786;50.798;7.302;2023-06-14T00:14:16;5.2;;;4.5;;
44126;SDS011;29786;50.798;7.302;2023-06-14T00:15:30;7.1;;;4.9;;
44126;SDS011;29786;50.798;7.302;2023-06-14T00:17:59;7.3;;;4.7;;
44126;SDS011;29786;50.798;7.302;2023-06-14T00:19:13;7.2;;;4.6;;
44126;SDS011;29786;50.798;7.302;2023-06-14T00:20:27;6.1;;;4.6;;
44126;SDS011;29786;50.798;7.302;2023-06-14T00:22:55;6.5;;;4.3;;
44126;SDS011;29786;50.798;7.302;2023-06-14T00:24:09;6.1;;;4.8;;
44126;SDS011;29786;50.798;7.302;2023-06-14T00:25:23;7.3;;;4.7;;
44126;SDS011;29786;50.798;7.302;2023-06-14T00:27:52;4.9;;;4.4;;
44126;SDS011;29786;50.798;7.302;2023-06-14T00:29:06;7.4;;;4.9;;
44126;SDS011;29786;50.798;7.302;2023-06-14T00:30:20;7.6;;;4.8;;
44126;SDS011;29786;50.798;7.302;2023-06-14T00:31:34;6.8;;;4.7;;
44126;SDS011;29786;50.798;7.302;2023-06-14T00:34:02;5.8;;;4.7;;
44126;SDS011;29786;50.798;7.302;2023-06-14T00:35:16;5.5;;;4.7;;
44126;SDS011;29786;50.798;7.302;2023-06-14T00:36:30;7.6;;;4.5;;
44126;SDS011;29786;50.798;7.302;2023-06-14T00:38:59;5.1;;;4.6;;
44126;SDS011;29786;50.798;7.302;2023-06-14T00:40:13;8.4;;;4.6;;
44126;SDS011;29786;50.798;7.302;2023-06-14T00:41:27;6.4;;;4.3;;
44126;SDS011;29786;50.798;7.302;2023-06-14T00:43:55;5.5;;;4.3;;
44126;SDS011;29786;50.798;7.302;2023-06-14T00:45:10;7.3;;;4.3;;
44126;SDS011;29786;50.798;7.302;2023-06-14T00:46:24;5.8;;;4.2;;
44126;SDS011;29786;50.798;7.302;2023-06-14T00:48:52;6.8;;;4.6;;
44126;SDS011;29786;50.798;7.302;2023-06-14T00:50:06;6.2;;;4.6;;
44126;SDS011;29786;50.798;7.302;2023-06-14T00:51:20;6.1;;;4.6;;
44126;SDS011;29786;50.798;7.302;2023-06-14T00:52:34;7.5;;;4.4;;
44126;SDS011;29786;50.798;7.302;2023-06-14T00:55:03;5.9;;;4.7;;
44126;SDS011;29786;50.798;7.302;2023-06-14T00:56:17;5.6;;;4.3;;
44126;SDS011;29786;50.798;7.302;2023-06-14T00:57:31;6.6;;;4.8;;
44126;SDS011;29786;50.798;7.302;2023-06-14T00:59:59;6.2;;;4.7;;
44126;SDS011;29786;50.798;7.302;2023-06-14T01:01:13;7;;;4.8;;
44126;SDS011;29786;50.798;7.302;2023-06-14T01:02:27;9.4;;;4.7;;
44126;SDS011;29786;50.798;7.302;2023-06-14T01:04:56;5.7;;;4.5;;
44126;SDS011;29786;50.798;7.302;2023-06-14T01:06:45;6.6;;;4.5;;
44126;SDS011;29786;50.798;7.302;2023-06-14T01:07:33;6.1;;;4.4;;
44126;SDS011;29786;50.798;7.302;2023-06-14T01:10:30;6.1;;;4.3;;
44126;SDS011;29786;50.798;7.302;2023-06-14T01:11:12;8.1;;;4.3;;
44126;SDS011;29786;50.798;7.302;2023-06-14T01:12:24;5.5;;;4.5;;
44126;SDS011;29786;50.798;7.302;2023-06-14T01:13:35;5.8;;;4.6;;
44126;SDS011;29786;50.798;7.302;2023-06-14T01:16:03;6.8;;;4.2;;
44126;SDS011;29786;50.798;7.302;2023-06-14T01:17:17;4.9;;;4.4;;
44126;SDS011;29786;50.798;7.302;2023-06-14T01:18:31;5.5;;;4.3;;
44126;SDS011;29786;50.798;7.302;2023-06-14T01:21:00;5.2;;;4.3;;
44126;SDS011;29786;50.798;7.302;2023-06-14T01:22:14;7.5;;;4.7;;
44126;SDS011;29786;50.798;7.302;2023-06-14T01:23:28;5.6;;;4.5;;
44126;SDS011;29786;50.798;7.302;2023-06-14T01:25:56;4.7;;;4.2;;
44126;SDS011;29786;50.798;7.302;2023-06-14T01:27:10;6.1;;;4.1;;
44126;SDS011;29786;50.798;7.302;2023-06-14T01:28:24;5.2;;;4.2;;
44126;SDS011;29786;50.798;7.302;2023-06-14T01:30:53;5.7;;;4.5;;
44126;SDS011;29786;50.798;7.302;2023-06-14T01:32:07;5.7;;;4.1;;
44126;SDS011;29786;50.798;7.302;2023-06-14T01:33:22;7.2;;;4.8;;
44126;SDS011;29786;50.798;7.302;2023-06-14T01:34:35;5.9;;;4.3;;
44126;SDS011;29786;50.798;7.302;2023-06-14T01:37:03;5.4;;;4.2;;
44126;SDS011;29786;50.798;7.302;2023-06-14T01:38:18;7.2;;;4.2;;
44126;SDS011;29786;50.798;7.302;2023-06-14T01:39:31;4.7;;;4;;
44126;SDS011;29786;50.798;7.302;2023-06-14T01:42:00;8.3;;;4.7;;
44126;SDS011;29786;50.798;7.302;2023-06-14T01:43:14;5.1;;;4;;
44126;SDS011;29786;50.798;7.302;2023-06-14T01:44:28;5.3;;;4.3;;
44126;SDS011;29786;50.798;7.302;2023-06-14T01:46:56;4.2;;;3.8;;
44126;SDS011;29786;50.798;7.302;2023-06-14T01:48:10;5.6;;;4.1;;
44126;SDS011;29786;50.798;7.302;2023-06-14T01:49:25;4.9;;;3.8;;
44126;SDS011;29786;50.798;7.302;2023-06-14T01:51:53;6.3;;;3.6;;
44126;SDS011;29786;50.798;7.302;2023-06-14T01:53:07;6.5;;;4.8;;
44126;SDS011;29786;50.798;7.302;2023-06-14T01:54:21;5.1;;;4.1;;
44126;SDS011;29786;50.798;7.302;2023-06-14T01:55:35;6.1;;;3.8;;
44126;SDS011;29786;50.798;7.302;2023-06-14T01:58:04;7.2;;;4.1;;
44126;SDS011;29786;50.798;7.302;2023-06-14T01:59:17;6.9;;;4.1;;
44126;SDS011;29786;50.798;7.302;2023-06-14T02:00:32;7.2;;;4.2;;
44126;SDS011;29786;50.798;7.302;2023-06-14T02:03:00;6.2;;;3.9;;
44126;SDS011;29786;50.798;7.302;2023-06-14T02:04:14;7.4;;;4;;
44126;SDS011;29786;50.798;7.302;2023-06-14T02:05:28;4.3;;;3.6;;
44126;SDS011;29786;50.798;7.302;2023-06-14T02:07:56;9.2;;;4;;
44126;SDS011;29786;50.798;7.302;2023-06-14T02:09:10;6.3;;;4.3;;
44126;SDS011;29786;50.798;7.302;2023-06-14T02:10:25;5.3;;;4.2;;
44126;SDS011;29786;50.798;7.302;2023-06-14T02:12:53;5.6;;;3.9;;
44126;SDS011;29786;50.798;7.302;2023-06-14T02:14:07;5.8;;;4.3;;
44126;SDS011;29786;50.798;7.302;2023-06-14T02:15:21;6.1;;;4.1;;
44126;SDS011;29786;50.798;7.302;2023-06-14T02:16:35;7;;;4;;
44126;SDS011;29786;50.798;7.302;2023-06-14T02:19:05;7.7;;;4.1;;
44126;SDS011;29786;50.798;7.302;2023-06-14T02:20:18;8.2;;;4.5;;
44126;SDS011;29786;50.798;7.302;2023-06-14T02:21:32;5.3;;;3.9;;
44126;SDS011;29786;50.798;7.302;2023-06-14T02:24:00;5.8;;;3.8;;
44126;SDS011;29786;50.798;7.302;2023-06-14T02:25:14;6.6;;;4.2;;
44126;SDS011;29786;50.798;7.302;2023-06-14T02:26:29;4;;;3.6;;
44126;SDS011;29786;50.798;7.302;2023-06-14T02:28:57;5.5;;;4.4;;
44126;SDS011;29786;50.798;7.302;2023-06-14T02:30:11;4.7;;;3.8;;
44126;SDS011;29786;50.798;7.302;2023-06-14T02:31:25;6.2;;;3.9;;
44126;SDS011;29786;50.798;7.302;2023-06-14T02:33:53;4.2;;;3.8;;
44126;SDS011;29786;50.798;7.302;2023-06-14T02:35:07;6;;;4.3;;
44126;SDS011;29786;50.798;7.302;2023-06-14T02:36:21;6;;;3.8;;
44126;SDS011;29786;50.798;7.302;2023-06-14T02:40:04;6.9;;;4.1;;
44126;SDS011;29786;50.798;7.302;2023-06-14T02:41:18;8.4;;;4.1;;
44126;SDS011;29786;50.798;7.302;2023-06-14T02:42:32;4.9;;;3.8;;
44126;SDS011;29786;50.798;7.302;2023-06-14T02:45:00;7.2;;;3.8;;
44126;SDS011;29786;50.798;7.302;2023-06-14T02:46:15;5.8;;;3.8;;
44126;SDS011;29786;50.798;7.302;2023-06-14T02:47:29;5.3;;;3.7;;
44126;SDS011;29786;50.798;7.302;2023-06-14T02:49:57;5.3;;;3.8;;
44126;SDS011;29786;50.798;7.302;2023-06-14T02:51:11;5.3;;;3.7;;
44126;SDS011;29786;50.798;7.302;2023-06-14T02:52:25;4.3;;;3.8;;
44126;SDS011;29786;50.798;7.302;2023-06-14T02:54:53;8.8;;;4.1;;
44126;SDS011;29786;50.798;7.302;2023-06-14T02:56:08;7.2;;;3.9;;
44126;SDS011;29786;50.798;7.302;2023-06-14T02:57:22;5.2;;;3.7;;
44126;SDS011;29786;50.798;7.302;2023-06-14T02:58:36;8.3;;;3.6;;
44126;SDS011;29786;50.798;7.302;2023-06-14T03:01:05;6.8;;;4.3;;
44126;SDS011;29786;50.798;7.302;2023-06-14T03:02:18;5.6;;;3.5;;
44126;SDS011;29786;50.798;7.302;2023-06-14T03:03:32;5;;;3.8;;
44126;SDS011;29786;50.798;7.302;2023-06-14T03:06:01;6.5;;;3.5;;
44126;SDS011;29786;50.798;7.302;2023-06-14T03:07:15;5.2;;;3.5;;
44126;SDS011;29786;50.798;7.302;2023-06-14T03:08:29;7.9;;;3.8;;
44126;SDS011;29786;50.798;7.302;2023-06-14T03:10:57;6;;;3.8;;
44126;SDS011;29786;50.798;7.302;2023-06-14T03:12:11;4.2;;;3.5;;
44126;SDS011;29786;50.798;7.302;2023-06-14T03:13:25;5.5;;;3.8;;
44126;SDS011;29786;50.798;7.302;2023-06-14T03:15:54;6.8;;;3.6;;
44126;SDS011;29786;50.798;7.302;2023-06-14T03:17:08;6.3;;;3.8;;
44126;SDS011;29786;50.798;7.302;2023-06-14T03:18:22;6.2;;;3.7;;
44126;SDS011;29786;50.798;7.302;2023-06-14T03:20:50;8.4;;;4.1;;
44126;SDS011;29786;50.798;7.302;2023-06-14T03:22:04;6.1;;;4;;
44126;SDS011;29786;50.798;7.302;2023-06-14T03:23:19;4.6;;;4;;
44126;SDS011;29786;50.798;7.302;2023-06-14T03:24:33;6.4;;;3.7;;
44126;SDS011;29786;50.798;7.302;2023-06-14T03:27:01;5.7;;;3.7;;
44126;SDS011;29786;50.798;7.302;2023-06-14T03:28:15;5.3;;;3.7;;
44126;SDS011;29786;50.798;7.302;2023-06-14T03:29:29;6.9;;;3.8;;
44126;SDS011;29786;50.798;7.302;2023-06-14T03:31:59;5;;;3.7;;
44126;SDS011;29786;50.798;7.302;2023-06-14T03:33:12;6.2;;;3.7;;
44126;SDS011;29786;50.798;7.302;2023-06-14T03:34:26;5.8;;;3.4;;
44126;SDS011;29786;50.798;7.302;2023-06-14T03:36:54;4.1;;;3.4;;
44126;SDS011;29786;50.798;7.302;2023-06-14T03:38:08;6.6;;;3.8;;
44126;SDS011;29786;50.798;7.302;2023-06-14T03:39:22;5;;;3.7;;
44126;SDS011;29786;50.798;7.302;2023-06-14T03:41:50;4.6;;;3.6;;
44126;SDS011;29786;50.798;7.302;2023-06-14T03:43:05;5;;;4;;
44126;SDS011;29786;50.798;7.302;2023-06-14T03:44:19;5.6;;;3.7;;
44126;SDS011;29786;50.798;7.302;2023-06-14T03:45:33;6.4;;;3.8;;
44126;SDS011;29786;50.798;7.302;2023-06-14T03:48:01;8.1;;;3.7;;
44126;SDS011;29786;50.798;7.302;2023-06-14T03:49:15;7.4;;;3.7;;
44126;SDS011;29786;50.798;7.302;2023-06-14T03:50:30;5.7;;;3.5;;
44126;SDS011;29786;50.798;7.302;2023-06-14T03:52:58;5;;;3.6;;
44126;SDS011;29786;50.798;7.302;2023-06-14T03:54:12;7.3;;;3.5;;
44126;SDS011;29786;50.798;7.302;2023-06-14T03:55:26;6.2;;;3.6;;
44126;SDS011;29786;50.798;7.302;2023-06-14T03:57:54;8.2;;;3.7;;
44126;SDS011;29786;50.798;7.302;2023-06-14T03:59:08;4.6;;;3.6;;
44126;SDS011;29786;50.798;7.302;2023-06-14T04:00:22;5;;;3.3;;
44126;SDS011;29786;50.798;7.302;2023-06-14T04:01:37;4.7;;;3.2;;
44126;SDS011;29786;50.798;7.302;2023-06-14T04:02:51;4.3;;;3.5;;
44126;SDS011;29786;50.798;7.302;2023-06-14T04:04:05;5.5;;;3.7;;
44126;SDS011;29786;50.798;7.302;2023-06-14T04:05:19;6.3;;;3.5;;
44126;SDS011;29786;50.798;7.302;2023-06-14T04:06:33;4.7;;;3.5;;
44126;SDS011;29786;50.798;7.302;2023-06-14T04:09:01;4.5;;;3;;
44126;SDS011;29786;50.798;7.302;2023-06-14T04:10:16;5.5;;;3.5;;
44126;SDS011;29786;50.798;7.302;2023-06-14T04:11:30;4.2;;;3.1;;
44126;SDS011;29786;50.798;7.302;2023-06-14T04:13:58;6.7;;;3.9;;
44126;SDS011;29786;50.798;7.302;2023-06-14T04:15:12;6.2;;;3.4;;
44126;SDS011;29786;50.798;7.302;2023-06-14T04:16:26;7;;;3.7;;
44126;SDS011;29786;50.798;7.302;2023-06-14T04:18:55;8.1;;;3.6;;
44126;SDS011;29786;50.798;7.302;2023-06-14T04:20:09;5.4;;;3.6;;
44126;SDS011;29786;50.798;7.302;2023-06-14T04:21:23;7.7;;;3.3;;
44126;SDS011;29786;50.798;7.302;2023-06-14T04:23:51;6.6;;;3.5;;
44126;SDS011;29786;50.798;7.302;2023-06-14T04:25:05;7.9;;;3.4;;
44126;SDS011;29786;50.798;7.302;2023-06-14T04:26:19;6.3;;;3.8;;
44126;SDS011;29786;50.798;7.302;2023-06-14T04:27:33;6.8;;;3.5;;
44126;SDS011;29786;50.798;7.302;2023-06-14T04:30:02;6.6;;;3.6;;
44126;SDS011;29786;50.798;7.302;2023-06-14T04:31:16;3.8;;;3.3;;
44126;SDS011;29786;50.798;7.302;2023-06-14T04:32:30;4.9;;;3.7;;
44126;SDS011;29786;50.798;7.302;2023-06-14T04:34:59;4.9;;;3;;
44126;SDS011;29786;50.798;7.302;2023-06-14T04:36:12;5.5;;;3.6;;
44126;SDS011;29786;50.798;7.302;2023-06-14T04:37:27;8.1;;;3.9;;
44126;SDS011;29786;50.798;7.302;2023-06-14T04:39:55;4.5;;;3.3;;
44126;SDS011;29786;50.798;7.302;2023-06-14T04:41:09;3.8;;;3.4;;
44126;SDS011;29786;50.798;7.302;2023-06-14T04:42:23;7;;;3.6;;
44126;SDS011;29786;50.798;7.302;2023-06-14T04:44:51;4.8;;;3.1;;
44126;SDS011;29786;50.798;7.302;2023-06-14T04:46:06;8.2;;;3.8;;
44126;SDS011;29786;50.798;7.302;2023-06-14T04:47:20;5.1;;;3.7;;
44126;SDS011;29786;50.798;7.302;2023-06-14T04:48:34;6.7;;;3.5;;
44126;SDS011;29786;50.798;7.302;2023-06-14T04:51:02;4.6;;;3.6;;
44126;SDS011;29786;50.798;7.302;2023-06-14T04:52:16;5.7;;;3.5;;
44126;SDS011;29786;50.798;7.302;2023-06-14T04:53:30;6.4;;;3.3;;
44126;SDS011;29786;50.798;7.302;2023-06-14T04:55:58;7;;;3.3;;
44126;SDS011;29786;50.798;7.302;2023-06-14T04:57:13;6.3;;;3.2;;
44126;SDS011;29786;50.798;7.302;2023-06-14T04:58:27;5.8;;;3.1;;
44126;SDS011;29786;50.798;7.302;2023-06-14T05:00:56;5.8;;;3.5;;
44126;SDS011;29786;50.798;7.302;2023-06-14T05:02:10;7.2;;;3.5;;
44126;SDS011;29786;50.798;7.302;2023-06-14T05:03:23;4.8;;;3.6;;
44126;SDS011;29786;50.798;7.302;2023-06-14T05:05:52;4.3;;;3.5;;
44126;SDS011;29786;50.798;7.302;2023-06-14T05:07:06;5.6;;;3.4;;
44126;SDS011;29786;50.798;7.302;2023-06-14T05:08:20;5.7;;;3.4;;
44126;SDS011;29786;50.798;7.302;2023-06-14T05:09:35;6.2;;;3.4;;
44126;SDS011;29786;50.798;7.302;2023-06-14T05:12:02;4.8;;;3.5;;
44126;SDS011;29786;50.798;7.302;2023-06-14T05:13:16;6;;;3.5;;
44126;SDS011;29786;50.798;7.302;2023-06-14T05:14:31;7;;;3.4;;
44126;SDS011;29786;50.798;7.302;2023-06-14T05:16:59;5.6;;;3.1;;
44126;SDS011;29786;50.798;7.302;2023-06-14T05:18:13;4.8;;;3.4;;
44126;SDS011;29786;50.798;7.302;2023-06-14T05:19:27;3.9;;;3.5;;
44126;SDS011;29786;50.798;7.302;2023-06-14T05:21:55;4.6;;;3.3;;
44126;SDS011;29786;50.798;7.302;2023-06-14T05:23:10;8;;;3.6;;
44126;SDS011;29786;50.798;7.302;2023-06-14T05:24:24;6.6;;;3.4;;
44126;SDS011;29786;50.798;7.302;2023-06-14T05:25:38;6.1;;;3.2;;
44126;SDS011;29786;50.798;7.302;2023-06-14T05:26:52;5;;;3.4;;
44126;SDS011;29786;50.798;7.302;2023-06-14T05:28:06;3.6;;;3;;
44126;SDS011;29786;50.798;7.302;2023-06-14T05:29:20;4.4;;;3.1;;
44126;SDS011;29786;50.798;7.302;2023-06-14T05:30:34;6;;;3.3;;
44126;SDS011;29786;50.798;7.302;2023-06-14T05:33:03;6.3;;;3.1;;
44126;SDS011;29786;50.798;7.302;2023-06-14T05:34:17;4.4;;;3.1;;
44126;SDS011;29786;50.798;7.302;2023-06-14T05:35:31;6.3;;;3.4;;
44126;SDS011;29786;50.798;7.302;2023-06-14T05:37:59;4.3;;;3;;
44126;SDS011;29786;50.798;7.302;2023-06-14T05:39:13;4.6;;;3.4;;
44126;SDS011;29786;50.798;7.302;2023-06-14T05:40:27;7.7;;;3.2;;
44126;SDS011;29786;50.798;7.302;2023-06-14T05:42:56;7.7;;;3.2;;
44126;SDS011;29786;50.798;7.302;2023-06-14T05:44:10;4.6;;;3.1;;
44126;SDS011;29786;50.798;7.302;2023-06-14T05:45:24;4.4;;;3.2;;
44126;SDS011;29786;50.798;7.302;2023-06-14T05:47:52;4;;;3.2;;
44126;SDS011;29786;50.798;7.302;2023-06-14T05:49:06;4.5;;;3.3;;
44126;SDS011;29786;50.798;7.302;2023-06-14T05:50:21;5.1;;;3;;
44126;SDS011;29786;50.798;7.302;2023-06-14T05:51:35;3.5;;;2.8;;
44126;SDS011;29786;50.798;7.302;2023-06-14T05:54:03;7.1;;;3.6;;
44126;SDS011;29786;50.798;7.302;2023-06-14T05:55:17;5.9;;;3.1;;
44126;SDS011;29786;50.798;7.302;2023-06-14T05:56:31;6.8;;;3.5;;
44126;SDS011;29786;50.798;7.302;2023-06-14T05:58:59;3.9;;;3.2;;
44126;SDS011;29786;50.798;7.302;2023-06-14T06:00:14;5.3;;;3.4;;
44126;SDS011;29786;50.798;7.302;2023-06-14T06:01:28;5.3;;;3.4;;
44126;SDS011;29786;50.798;7.302;2023-06-14T06:03:56;4.2;;;3.3;;
44126;SDS011;29786;50.798;7.302;2023-06-14T06:05:10;4.7;;;3.3;;
44126;SDS011;29786;50.798;7.302;2023-06-14T06:06:24;6.1;;;3.2;;
44126;SDS011;29786;50.798;7.302;2023-06-14T06:08:52;4.7;;;2.9;;
44126;SDS011;29786;50.798;7.302;2023-06-14T06:10:07;6;;;2.8;;
44126;SDS011;29786;50.798;7.302;2023-06-14T06:11:21;3.9;;;3.4;;
44126;SDS011;29786;50.798;7.302;2023-06-14T06:12:35;5.6;;;3.3;;
44126;SDS011;29786;50.798;7.302;2023-06-14T06:15:03;8.5;;;3.1;;
44126;SDS011;29786;50.798;7.302;2023-06-14T06:16:17;4.2;;;3;;
44126;SDS011;29786;50.798;7.302;2023-06-14T06:17:31;3.6;;;2.8;;
44126;SDS011;29786;50.798;7.302;2023-06-14T06:20:00;4.3;;;2.7;;
44126;SDS011;29786;50.798;7.302;2023-06-14T06:22:28;6.1;;;2.9;;
44126;SDS011;29786;50.798;7.302;2023-06-14T06:24:56;7.1;;;2.9;;
44126;SDS011;29786;50.798;7.302;2023-06-14T06:26:10;5.5;;;2.9;;
44126;SDS011;29786;50.798;7.302;2023-06-14T06:27:25;4.6;;;2.8;;
44126;SDS011;29786;50.798;7.302;2023-06-14T06:29:53;3.9;;;2.8;;
44126;SDS011;29786;50.798;7.302;2023-06-14T06:31:07;5.8;;;2.7;;
44126;SDS011;29786;50.798;7.302;2023-06-14T06:32:21;6;;;3;;
44126;SDS011;29786;50.798;7.302;2023-06-14T06:33:35;5.5;;;2.6;;
44126;SDS011;29786;50.798;7.302;2023-06-14T06:36:03;4.2;;;2.4;;
44126;SDS011;29786;50.798;7.302;2023-06-14T06:37:18;3.5;;;2.9;;
44126;SDS011;29786;50.798;7.302;2023-06-14T06:38:32;5.9;;;2.9;;
44126;SDS011;29786;50.798;7.302;2023-06-14T06:41:00;4.3;;;2.6;;
44126;SDS011;29786;50.798;7.302;2023-06-14T06:42:14;7.2;;;2.5;;
44126;SDS011;29786;50.798;7.302;2023-06-14T06:43:28;5;;;2.4;;
44126;SDS011;29786;50.798;7.302;2023-06-14T06:45:56;4.8;;;2.5;;
44126;SDS011;29786;50.798;7.302;2023-06-14T06:47:11;2.8;;;2.1;;
44126;SDS011;29786;50.798;7.302;2023-06-14T06:48:25;4.7;;;2.5;;
44126;SDS011;29786;50.798;7.302;2023-06-14T06:50:53;6.4;;;2.3;;
44126;SDS011;29786;50.798;7.302;2023-06-14T06:52:07;3.5;;;2.3;;
44126;SDS011;29786;50.798;7.302;2023-06-14T06:53:21;5.3;;;2.4;;
44126;SDS011;29786;50.798;7.302;2023-06-14T06:54:35;6.1;;;2.4;;
44126;SDS011;29786;50.798;7.302;2023-06-14T06:57:04;4.5;;;2.3;;
44126;SDS011;29786;50.798;7.302;2023-06-14T06:58:18;3.3;;;2.4;;
44126;SDS011;29786;50.798;7.302;2023-06-14T06:59:32;2.8;;;2.2;;
44126;SDS011;29786;50.798;7.302;2023-06-14T07:02:00;3.4;;;2.2;;
44126;SDS011;29786;50.798;7.302;2023-06-14T07:03:15;4.7;;;2.6;;
44126;SDS011;29786;50.798;7.302;2023-06-14T07:04:28;6.3;;;2.5;;
44126;SDS011;29786;50.798;7.302;2023-06-14T07:06:57;4.7;;;2.6;;
44126;SDS011;29786;50.798;7.302;2023-06-14T07:08:11;3.6;;;2.5;;
44126;SDS011;29786;50.798;7.302;2023-06-14T07:09:25;5;;;2.2;;
44126;SDS011;29786;50.798;7.302;2023-06-14T07:11:53;2.2;;;2;;
44126;SDS011;29786;50.798;7.302;2023-06-14T07:13:07;3.2;;;2.3;;
44126;SDS011;29786;50.798;7.302;2023-06-14T07:14:21;3.2;;;2;;
44126;SDS011;29786;50.798;7.302;2023-06-14T07:16:50;3.4;;;2.2;;
44126;SDS011;29786;50.798;7.302;2023-06-14T07:18:04;4.9;;;2.1;;
44126;SDS011;29786;50.798;7.302;2023-06-14T07:19:18;3.1;;;2;;
44126;SDS011;29786;50.798;7.302;2023-06-14T07:20:32;6.6;;;2.2;;
44126;SDS011;29786;50.798;7.302;2023-06-14T07:23:01;6.1;;;2.1;;
44126;SDS011;29786;50.798;7.302;2023-06-14T07:24:16;2.6;;;1.8;;
44126;SDS011;29786;50.798;7.302;2023-06-14T07:25:29;2.4;;;1.9;;
44126;SDS011;29786;50.798;7.302;2023-06-14T07:27:57;2.6;;;1.9;;
44126;SDS011;29786;50.798;7.302;2023-06-14T07:29:11;2.7;;;1.8;;
44126;SDS011;29786;50.798;7.302;2023-06-14T07:30:25;4.9;;;2.1;;
44126;SDS011;29786;50.798;7.302;2023-06-14T07:32:53;4.3;;;1.9;;
44126;SDS011;29786;50.798;7.302;2023-06-14T07:34:08;3.7;;;2;;
44126;SDS011;29786;50.798;7.302;2023-06-14T07:35:22;2.8;;;1.9;;
44126;SDS011;29786;50.798;7.302;2023-06-14T07:36:36;2.3;;;2;;
44126;SDS011;29786;50.798;7.302;2023-06-14T07:39:04;3.2;;;1.9;;
44126;SDS011;29786;50.798;7.302;2023-06-14T07:40:18;2.9;;;1.7;;
44126;SDS011;29786;50.798;7.302;2023-06-14T07:41:32;2.5;;;1.7;;
44126;SDS011;29786;50.798;7.302;2023-06-14T07:44:01;3.7;;;1.6;;
44126;SDS011;29786;50.798;7.302;2023-06-14T07:45:15;3.5;;;1.6;;
44126;SDS011;29786;50.798;7.302;2023-06-14T07:46:29;3.5;;;1.8;;
44126;SDS011;29786;50.798;7.302;2023-06-14T07:48:57;4.7;;;1.8;;
44126;SDS011;29786;50.798;7.302;2023-06-14T07:50:11;3;;;1.7;;
44126;SDS011;29786;50.798;7.302;2023-06-14T07:51:25;2.5;;;2;;
44126;SDS011;29786;50.798;7.302;2023-06-14T07:53:54;2.2;;;1.6;;
44126;SDS011;29786;50.798;7.302;2023-06-14T07:55:08;2.8;;;1.7;;
44126;SDS011;29786;50.798;7.302;2023-06-14T07:56:22;2.7;;;1.6;;
44126;SDS011;29786;50.798;7.302;2023-06-14T07:57:36;2.4;;;1.6;;
44126;SDS011;29786;50.798;7.302;2023-06-14T08:00:05;2;;;1.7;;
44126;SDS011;29786;50.798;7.302;2023-06-14T08:01:19;3.7;;;1.7;;
44126;SDS011;29786;50.798;7.302;2023-06-14T08:02:33;2.6;;;1.6;;
44126;SDS011;29786;50.798;7.302;2023-06-14T08:05:01;3.4;;;1.5;;
44126;SDS011;29786;50.798;7.302;2023-06-14T08:06:15;2.2;;;1.5;;
44126;SDS011;29786;50.798;7.302;2023-06-14T08:07:29;1.7;;;1.4;;
44126;SDS011;29786;50.798;7.302;2023-06-14T08:09:57;2.7;;;1.5;;
44126;SDS011;29786;50.798;7.302;2023-06-14T08:11:12;5.6;;;1.6;;
44126;SDS011;29786;50.798;7.302;2023-06-14T08:12:26;3.3;;;1.5;;
44126;SDS011;29786;50.798;7.302;2023-06-14T08:14:54;1.5;;;1.4;;
44126;SDS011;29786;50.798;7.302;2023-06-14T08:16:08;2.3;;;1.5;;
44126;SDS011;29786;50.798;7.302;2023-06-14T08:17:22;1.7;;;1.5;;
44126;SDS011;29786;50.798;7.302;2023-06-14T08:19:50;3.1;;;1.6;;
44126;SDS011;29786;50.798;7.302;2023-06-14T08:21:05;3.7;;;1.6;;
44126;SDS011;29786;50.798;7.302;2023-06-14T08:22:19;4.7;;;1.5;;
44126;SDS011;29786;50.798;7.302;2023-06-14T08:23:33;2.2;;;1.2;;
44126;SDS011;29786;50.798;7.302;2023-06-14T08:26:01;2.5;;;1.4;;
44126;SDS011;29786;50.798;7.302;2023-06-14T08:27:15;3.3;;;1.4;;
44126;SDS011;29786;50.798;7.302;2023-06-14T08:28:29;3.1;;;1.4;;
44126;SDS011;29786;50.798;7.302;2023-06-14T08:30:58;3.8;;;1.5;;
44126;SDS011;29786;50.798;7.302;2023-06-14T08:32:12;2.2;;;1.5;;
44126;SDS011;29786;50.798;7.302;2023-06-14T08:33:26;1.7;;;1.6;;
44126;SDS011;29786;50.798;7.302;2023-06-14T08:35:54;3;;;1.7;;
44126;SDS011;29786;50.798;7.302;2023-06-14T08:37:08;2.3;;;1.5;;
44126;SDS011;29786;50.798;7.302;2023-06-14T08:38:23;5.1;;;1.8;;
44126;SDS011;29786;50.798;7.302;2023-06-14T08:40:59;3.6;;;1.4;;
44126;SDS011;29786;50.798;7.302;2023-06-14T08:42:14;2.7;;;1.6;;
44126;SDS011;29786;50.798;7.302;2023-06-14T08:43:27;4;;;1.6;;
44126;SDS011;29786;50.798;7.302;2023-06-14T08:45:58;2.4;;;1.4;;
44126;SDS011;29786;50.798;7.302;2023-06-14T08:47:10;2.8;;;1.4;;
44126;SDS011;29786;50.798;7.302;2023-06-14T08:48:26;2.7;;;1.4;;
44126;SDS011;29786;50.798;7.302;2023-06-14T08:50:53;2.5;;;1.4;;
44126;SDS011;29786;50.798;7.302;2023-06-14T08:52:07;3;;;1.4;;
44126;SDS011;29786;50.798;7.302;2023-06-14T08:53:20;2.5;;;1.4;;
44126;SDS011;29786;50.798;7.302;2023-06-14T08:54:34;2.3;;;1.3;;
44126;SDS011;29786;50.798;7.302;2023-06-14T08:57:03;3;;;1.6;;
44126;SDS011;29786;50.798;7.302;2023-06-14T08:58:17;3.4;;;1.4;;
44126;SDS011;29786;50.798;7.302;2023-06-14T08:59:31;6.7;;;1.5;;
44126;SDS011;29786;50.798;7.302;2023-06-14T09:01:59;3.8;;;1.4;;
44126;SDS011;29786;50.798;7.302;2023-06-14T09:03:13;2.3;;;1.4;;
44126;SDS011;29786;50.798;7.302;2023-06-14T09:04:27;2.3;;;1.3;;
44126;SDS011;29786;50.798;7.302;2023-06-14T09:06:56;3.5;;;1.5;;
44126;SDS011;29786;50.798;7.302;2023-06-14T09:08:10;2.2;;;1.3;;
44126;SDS011;29786;50.798;7.302;2023-06-14T09:09:24;2.3;;;1.7;;
44126;SDS011;29786;50.798;7.302;2023-06-14T09:11:52;5.9;;;1.9;;
44126;SDS011;29786;50.798;7.302;2023-06-14T09:13:06;4.1;;;1.5;;
44126;SDS011;29786;50.798;7.302;2023-06-14T09:14:23;2.8;;;1.7;;
44126;SDS011;29786;50.798;7.302;2023-06-14T09:15:35;2.2;;;1.6;;
44126;SDS011;29786;50.798;7.302;2023-06-14T09:18:03;3.5;;;1.7;;
44126;SDS011;29786;50.798;7.302;2023-06-14T09:19:21;6.1;;;1.8;;
44126;SDS011;29786;50.798;7.302;2023-06-14T09:20:31;5.7;;;1.9;;
44126;SDS011;29786;50.798;7.302;2023-06-14T09:23:00;2.7;;;1.8;;
44126;SDS011;29786;50.798;7.302;2023-06-14T09:24:14;3.1;;;1.6;;
44126;SDS011;29786;50.798;7.302;2023-06-14T09:25:28;2.1;;;1.5;;
44126;SDS011;29786;50.798;7.302;2023-06-14T09:27:56;4;;;1.9;;
44126;SDS011;29786;50.798;7.302;2023-06-14T09:29:10;3.5;;;1.6;;
44126;SDS011;29786;50.798;7.302;2023-06-14T09:30:25;2.8;;;1.6;;
44126;SDS011;29786;50.798;7.302;2023-06-14T09:32:53;3;;;1.4;;
44126;SDS011;29786;50.798;7.302;2023-06-14T09:34:07;2.5;;;1.5;;
44126;SDS011;29786;50.798;7.302;2023-06-14T09:35:21;3.8;;;1.3;;
44126;SDS011;29786;50.798;7.302;2023-06-14T09:36:35;2;;;1.6;;
44126;SDS011;29786;50.798;7.302;2023-06-14T09:39:03;2.8;;;1.5;;
44126;SDS011;29786;50.798;7.302;2023-06-14T09:40:20;2.7;;;1.6;;
44126;SDS011;29786;50.798;7.302;2023-06-14T09:41:34;3.7;;;1.8;;
44126;SDS011;29786;50.798;7.302;2023-06-14T09:44:00;2.2;;;1.5;;
44126;SDS011;29786;50.798;7.302;2023-06-14T09:45:14;2.8;;;1.6;;
44126;SDS011;29786;50.798;7.302;2023-06-14T09:46:28;5;;;1.9;;
44126;SDS011;29786;50.798;7.302;2023-06-14T09:48:57;4.1;;;1.6;;
44126;SDS011;29786;50.798;7.302;2023-06-14T09:50:10;3.7;;;1.9;;
44126;SDS011;29786;50.798;7.302;2023-06-14T09:51:25;2.5;;;1.6;;
44126;SDS011;29786;50.798;7.302;2023-06-14T09:53:55;1.6;;;1.4;;
44126;SDS011;29786;50.798;7.302;2023-06-14T09:55:12;2.3;;;1.5;;
44126;SDS011;29786;50.798;7.302;2023-06-14T09:56:22;2.9;;;1.6;;
44126;SDS011;29786;50.798;7.302;2023-06-14T09:57:35;5.4;;;1.7;;
44126;SDS011;29786;50.798;7.302;2023-06-14T10:00:04;2.8;;;1.7;;
44126;SDS011;29786;50.798;7.302;2023-06-14T10:01:18;2.9;;;1.8;;
44126;SDS011;29786;50.798;7.302;2023-06-14T10:02:34;2.4;;;1.6;;
44126;SDS011;29786;50.798;7.302;2023-06-14T10:05:08;2.3;;;1.9;;
44126;SDS011;29786;50.798;7.302;2023-06-14T10:06:14;4;;;1.6;;